Time;durP1;ratioP1;P1;durP2;ratioP2;P2;SDS_P1;SDS_P2;PMS_P1;PMS_P2;Temp;Humidity;BMP_temperature;BMP_pressure;BME280_temperature;BME280_humidity;BME280_pressure;Samples;Min_cycle;Max_cycle;Signal;HPM_P1;HPM_P2
2021/08/11 00:01:21;;;;;;;3.28;2.00;;;;;;;16.52;100.00;101077.03;4950421;28;20039;-68
2021/08/11 00:03:47;;;;;;;2.65;1.50;;;;;;;16.48;100.00;101067.25;4953172;29;20046;-68
2021/08/11 00:06:12;;;;;;;3.00;1.77;;;;;;;16.52;100.00;101071.59;4950119;29;20082;-67
2021/08/11 00:08:38;;;;;;;3.50;2.30;;;;;;;16.48;100.00;101078.97;4950994;29;20046;-67
2021/08/11 00:11:03;;;;;;;4.93;2.33;;;;;;;16.51;100.00;101082.84;4950986;28;20041;-68
2021/08/11 00:13:29;;;;;;;4.72;2.65;;;;;;;16.60;100.00;101081.31;4952493;28;20043;-67
2021/08/11 00:15:54;;;;;;;3.03;2.00;;;;;;;16.60;100.00;101078.59;4946306;29;20051;-67
2021/08/11 00:18:20;;;;;;;3.40;2.00;;;;;;;16.59;100.00;101077.03;4943521;29;20049;-68
2021/08/11 00:20:45;;;;;;;3.17;1.73;;;;;;;16.52;100.00;101078.97;4947653;29;20031;-67
2021/08/11 00:23:11;;;;;;;5.55;2.22;;;;;;;16.55;100.00;101081.69;4938010;29;20056;-68
2021/08/11 00:25:37;;;;;;;4.28;2.20;;;;;;;16.66;100.00;101073.56;4946644;29;20118;-68
2021/08/11 00:28:02;;;;;;;3.30;1.85;;;;;;;16.70;100.00;101086.03;4946483;29;20065;-68
2021/08/11 00:30:28;;;;;;;5.35;2.33;;;;;;;16.64;100.00;101081.34;4945587;28;20094;-67
2021/08/11 00:32:53;;;;;;;4.40;2.22;;;;;;;16.71;100.00;101078.63;4949272;28;20035;-68
2021/08/11 00:35:19;;;;;;;4.13;2.15;;;;;;;16.67;100.00;101075.91;4957466;28;20365;-67
2021/08/11 00:37:44;;;;;;;4.45;2.22;;;;;;;16.67;100.00;101086.78;4955613;28;20106;-68
2021/08/11 00:40:13;;;;;;;3.83;2.10;;;;;;;16.55;100.00;101075.50;4936256;29;20034;-68
2021/08/11 00:42:40;;;;;;;3.40;2.10;;;;;;;16.52;100.00;101079.75;4944320;28;20528;-69
2021/08/11 00:45:07;;;;;;;3.15;1.90;;;;;;;16.46;100.00;101081.25;4939683;28;20042;-68
2021/08/11 00:47:36;;;;;;;4.00;2.22;;;;;;;16.51;100.00;101082.84;4942824;29;20038;-68
2021/08/11 00:50:05;;;;;;;3.80;2.40;;;;;;;16.54;100.00;101085.59;4950212;28;20122;-68
2021/08/11 00:52:31;;;;;;;4.28;2.05;;;;;;;16.35;100.00;101079.66;4948269;29;20035;-67
2021/08/11 00:54:58;;;;;;;4.03;2.15;;;;;;;16.47;100.00;101084.75;4950979;29;20038;-68
2021/08/11 00:57:27;;;;;;;3.78;2.15;;;;;;;16.50;100.00;101076.63;4951479;29;20117;-67
2021/08/11 00:59:57;;;;;;;3.88;2.08;;;;;;;16.51;100.00;101078.19;4946905;29;20404;-68
2021/08/11 01:02:23;;;;;;;3.88;2.03;;;;;;;16.46;100.00;101080.47;4915944;29;20032;-67
2021/08/11 01:04:55;;;;;;;3.78;1.70;;;;;;;16.48;100.00;101080.84;4949871;28;20118;-67
2021/08/11 01:07:23;;;;;;;4.72;2.22;;;;;;;16.41;100.00;101072.69;4945734;28;20102;-68
2021/08/11 01:09:50;;;;;;;3.53;1.95;;;;;;;16.36;100.00;101084.69;4930250;29;20085;-68
2021/08/11 01:12:17;;;;;;;3.75;2.15;;;;;;;16.23;100.00;101081.56;4943380;29;20109;-67
2021/08/11 01:14:43;;;;;;;2.80;1.67;;;;;;;16.39;100.00;101075.78;4950622;28;20611;-68
2021/08/11 01:17:10;;;;;;;2.75;1.85;;;;;;;16.25;100.00;101079.25;4950721;28;20074;-68
2021/08/11 01:19:37;;;;;;;3.38;2.20;;;;;;;16.24;100.00;101079.59;4945316;28;20035;-68
2021/08/11 01:22:03;;;;;;;3.97;2.10;;;;;;;16.15;100.00;101081.91;4927482;29;20043;-68
2021/08/11 01:24:43;;;;;;;3.75;2.03;;;;;;;16.21;100.00;101074.94;4949975;28;20039;-67
2021/08/11 01:27:38;;;;;;;2.65;1.67;;;;;;;16.13;100.00;101071.41;4933944;28;20058;-68
2021/08/11 01:30:27;;;;;;;3.88;2.20;;;;;;;16.17;100.00;101076.88;4949457;28;20500;-67
2021/08/11 01:32:59;;;;;;;3.15;1.83;;;;;;;16.20;100.00;101071.44;4952077;28;20126;-67
2021/08/11 01:35:35;;;;;;;4.13;2.25;;;;;;;15.93;100.00;101072.09;4943602;28;20062;-67
2021/08/11 01:38:04;;;;;;;4.05;1.90;;;;;;;15.88;100.00;101073.22;4960695;28;20948;-67
2021/08/11 01:40:34;;;;;;;4.25;2.40;;;;;;;15.94;100.00;101060.84;4950053;29;20043;-68
2021/08/11 01:43:02;;;;;;;3.33;1.88;;;;;;;16.04;100.00;101076.44;4932186;29;20027;-68
2021/08/11 01:45:33;;;;;;;3.70;2.15;;;;;;;15.95;100.00;101075.97;4943841;29;20476;-67
2021/08/11 01:48:03;;;;;;;4.45;1.95;;;;;;;16.04;100.00;101065.56;4949561;29;20031;-67
2021/08/11 01:50:36;;;;;;;5.07;2.03;;;;;;;16.09;100.00;101072.56;4918808;29;20059;-67
2021/08/11 01:53:05;;;;;;;3.42;1.90;;;;;;;15.92;100.00;101071.31;4954645;28;20038;-68
2021/08/11 01:55:33;;;;;;;4.47;2.05;;;;;;;15.92;100.00;101067.81;4941733;29;20040;-67
2021/08/11 01:58:00;;;;;;;4.22;2.25;;;;;;;15.95;100.00;101081.41;4945756;29;20027;-67
2021/08/11 02:00:30;;;;;;;3.20;1.93;;;;;;;15.85;100.00;101079.41;4943344;29;20035;-68
2021/08/11 02:02:59;;;;;;;4.55;1.98;;;;;;;15.75;100.00;101079.38;4947404;28;20146;-68
2021/08/11 02:05:28;;;;;;;3.47;2.17;;;;;;;15.84;100.00;101088.72;4947098;29;20050;-68
2021/08/11 02:08:02;;;;;;;3.55;1.98;;;;;;;15.94;100.00;101081.78;4950610;29;20456;-68
2021/08/11 02:10:30;;;;;;;3.60;1.77;;;;;;;15.90;100.00;101089.94;4950433;28;20042;-68
2021/08/11 02:12:57;;;;;;;2.42;1.30;;;;;;;15.99;100.00;101092.28;4933045;28;20038;-67
2021/08/11 02:15:23;;;;;;;2.85;1.52;;;;;;;16.00;100.00;101097.38;4949616;28;20035;-68
2021/08/11 02:17:49;;;;;;;3.78;1.95;;;;;;;15.88;100.00;101099.63;4926661;29;20206;-68
2021/08/11 02:20:15;;;;;;;3.50;1.75;;;;;;;15.88;100.00;101089.53;4951085;28;20539;-66
2021/08/11 02:22:41;;;;;;;3.50;1.90;;;;;;;15.86;100.00;101089.13;4945920;29;20063;-67
2021/08/11 02:25:12;;;;;;;3.05;1.80;;;;;;;15.81;100.00;101089.50;4939474;29;20093;-68
2021/08/11 02:27:56;;;;;;;4.25;2.15;;;;;;;15.83;100.00;101080.97;4941899;29;20514;-68
2021/08/11 02:30:32;;;;;;;2.30;1.50;;;;;;;15.84;100.00;101087.94;4948034;28;20422;-68
2021/08/11 02:33:02;;;;;;;2.58;1.30;;;;;;;15.89;100.00;101084.88;4949132;29;20035;-68
2021/08/11 02:35:47;;;;;;;1.73;1.20;;;;;;;15.74;100.00;101094.09;4947717;28;20039;-68
2021/08/11 02:38:35;;;;;;;3.22;1.50;;;;;;;15.72;100.00;101096.41;4955532;29;20031;-67
2021/08/11 02:41:13;;;;;;;3.13;1.60;;;;;;;15.70;100.00;101094.06;4947263;28;20046;-68
2021/08/11 02:43:56;;;;;;;3.38;1.95;;;;;;;15.58;100.00;101094.38;4932409;29;20119;-68
2021/08/11 02:46:25;;;;;;;2.05;1.40;;;;;;;15.68;100.00;101098.34;4937192;29;20031;-67
2021/08/11 02:49:01;;;;;;;2.85;1.60;;;;;;;15.67;100.00;101111.13;4952152;28;20071;-68
2021/08/11 02:51:30;;;;;;;2.42;1.40;;;;;;;15.74;100.00;101107.66;4941379;28;20389;-68
2021/08/11 02:54:01;;;;;;;2.63;1.83;;;;;;;15.76;100.00;101114.28;4947823;29;20118;-67
2021/08/11 02:56:27;;;;;;;3.47;2.17;;;;;;;15.73;100.00;101120.47;4950044;28;20503;-67
2021/08/11 02:58:54;;;;;;;2.17;1.52;;;;;;;15.57;100.00;101113.75;4949966;29;20522;-68
2021/08/11 03:01:20;;;;;;;4.22;1.65;;;;;;;15.62;100.00;101114.19;4953245;28;20111;-67
2021/08/11 03:03:46;;;;;;;2.53;1.40;;;;;;;15.56;100.00;101113.00;4952151;28;20035;-68
2021/08/11 03:06:12;;;;;;;1.52;1.20;;;;;;;15.41;100.00;101113.22;4950169;29;20031;-67
2021/08/11 03:08:38;;;;;;;2.30;1.50;;;;;;;15.27;100.00;101113.88;4934558;29;20031;-67
2021/08/11 03:11:08;;;;;;;2.13;1.48;;;;;;;15.30;100.00;101115.84;4933327;28;20481;-67
2021/08/11 03:13:35;;;;;;;2.83;1.63;;;;;;;15.29;100.00;101111.59;4953377;28;20063;-66
2021/08/11 03:16:01;;;;;;;2.85;1.42;;;;;;;15.14;100.00;101109.88;4955989;28;20019;-67
2021/08/11 03:18:27;;;;;;;2.47;1.90;;;;;;;15.24;100.00;101109.97;4951546;29;20039;-67
2021/08/11 03:20:58;;;;;;;3.00;1.38;;;;;;;15.25;100.00;101110.78;4941249;28;20039;-67
2021/08/11 03:23:24;;;;;;;3.03;1.63;;;;;;;15.21;100.00;101109.97;4949452;29;20129;-67
2021/08/11 03:25:49;;;;;;;2.55;1.40;;;;;;;15.31;100.00;101112.75;4943184;29;20027;-66
2021/08/11 03:28:15;;;;;;;1.85;1.40;;;;;;;15.31;100.00;101117.41;4947491;29;20395;-67
2021/08/11 03:30:42;;;;;;;2.92;1.55;;;;;;;15.12;100.00;101114.91;4950380;29;20125;-67
2021/08/11 03:33:08;;;;;;;1.77;1.20;;;;;;;15.16;100.00;101123.84;5013970;23;20071;-68
2021/08/11 03:35:34;;;;;;;2.38;1.40;;;;;;;15.23;100.00;101113.06;5009773;28;20046;-67
2021/08/11 03:38:00;;;;;;;2.63;1.42;;;;;;;15.23;100.00;101129.38;5028801;28;20092;-67
2021/08/11 03:40:27;;;;;;;2.47;1.10;;;;;;;15.23;100.00;101121.22;5014546;28;20025;-68
2021/08/11 03:42:53;;;;;;;2.55;1.45;;;;;;;15.29;100.00;101112.34;5011420;28;20865;-68
2021/08/11 03:45:20;;;;;;;1.60;1.23;;;;;;;15.34;100.00;101124.78;5005633;28;20036;-67
2021/08/11 03:47:46;;;;;;;3.20;1.52;;;;;;;15.23;100.00;101124.69;4994018;28;20164;-67
2021/08/11 03:50:13;;;;;;;2.55;1.50;;;;;;;15.18;100.00;101121.53;5012140;28;20145;-67
2021/08/11 03:52:42;;;;;;;2.15;1.25;;;;;;;15.26;100.00;101123.16;4998432;28;20030;-67
2021/08/11 03:55:10;;;;;;;2.60;1.40;;;;;;;15.18;100.00;101118.84;5006201;28;20098;-67
2021/08/11 03:57:35;;;;;;;1.98;1.48;;;;;;;15.20;100.00;101125.44;5011594;28;20030;-67
2021/08/11 04:00:03;;;;;;;3.63;1.70;;;;;;;15.30;100.00;101129.41;5008237;28;20068;-66
2021/08/11 04:02:30;;;;;;;4.03;1.63;;;;;;;15.27;100.00;101139.06;5000487;28;20041;-67
2021/08/11 04:04:55;;;;;;;2.67;1.60;;;;;;;14.92;100.00;101136.03;5010867;28;20052;-66
2021/08/11 04:07:20;;;;;;;2.22;1.90;;;;;;;14.93;100.00;101140.31;5011456;28;20097;-67
2021/08/11 04:09:46;;;;;;;4.15;1.88;;;;;;;15.07;100.00;101139.66;5012184;28;20761;-67
2021/08/11 04:12:11;;;;;;;2.88;1.38;;;;;;;14.96;100.00;101136.81;5003400;28;20042;-66
2021/08/11 04:14:37;;;;;;;2.85;1.42;;;;;;;15.12;100.00;101139.31;5010859;28;20042;-67
2021/08/11 04:17:02;;;;;;;2.97;1.50;;;;;;;15.18;100.00;101132.41;5007630;28;20121;-67
2021/08/11 04:19:28;;;;;;;3.08;1.65;;;;;;;15.13;100.00;101138.97;5007534;28;20070;-69
2021/08/11 04:21:53;;;;;;;5.38;1.63;;;;;;;15.11;100.00;101132.34;5010091;28;20029;-68
2021/08/11 04:24:18;;;;;;;2.60;1.50;;;;;;;15.03;100.00;101125.28;5006099;28;20132;-66
2021/08/11 04:26:44;;;;;;;2.15;1.35;;;;;;;14.97;100.00;101138.41;5004443;28;20049;-66
2021/08/11 04:29:09;;;;;;;2.10;1.50;;;;;;;14.99;100.00;101132.59;5011776;28;20034;-67
2021/08/11 04:31:35;;;;;;;3.00;1.50;;;;;;;14.97;100.00;101135.69;5010884;28;20382;-66
2021/08/11 04:34:00;;;;;;;1.83;1.17;;;;;;;14.83;100.00;101129.31;5001276;28;20077;-67
2021/08/11 04:36:25;;;;;;;3.00;1.55;;;;;;;14.94;100.00;101138.38;5010657;28;20038;-66
2021/08/11 04:38:51;;;;;;;2.30;1.48;;;;;;;14.81;100.00;101129.69;5005617;28;20042;-66
2021/08/11 04:41:17;;;;;;;2.42;1.67;;;;;;;14.92;100.00;101127.13;5008657;28;20058;-67
2021/08/11 04:43:42;;;;;;;2.10;1.65;;;;;;;14.90;100.00;101138.34;5006630;28;20050;-67
2021/08/11 04:46:08;;;;;;;2.92;1.05;;;;;;;15.11;100.00;101130.41;5002404;28;20128;-67
2021/08/11 04:48:34;;;;;;;2.92;1.67;;;;;;;15.23;100.00;101135.53;4994545;28;20117;-67
2021/08/11 04:50:59;;;;;;;3.85;1.58;;;;;;;15.18;100.00;101137.81;5002103;28;20037;-67
2021/08/11 04:53:25;;;;;;;3.75;1.75;;;;;;;15.22;100.00;101141.34;5009780;28;20109;-67
2021/08/11 04:55:50;;;;;;;2.38;1.42;;;;;;;15.40;100.00;101139.59;5002168;28;20518;-67
2021/08/11 04:58:17;;;;;;;2.55;1.65;;;;;;;15.37;100.00;101143.03;5006418;28;20105;-66
2021/08/11 05:00:42;;;;;;;2.17;1.58;;;;;;;15.26;100.00;101150.31;5002553;28;20045;-67
2021/08/11 05:03:08;;;;;;;3.13;1.60;;;;;;;15.49;100.00;101148.22;4993657;28;20022;-66
2021/08/11 05:05:34;;;;;;;3.63;1.77;;;;;;;15.67;100.00;101154.56;5008185;28;20459;-67
2021/08/11 05:07:59;;;;;;;3.10;1.52;;;;;;;15.59;100.00;101158.38;5009464;28;20052;-67
2021/08/11 05:10:25;;;;;;;3.20;1.63;;;;;;;15.62;100.00;101157.63;4997649;28;20042;-66
2021/08/11 05:12:50;;;;;;;4.00;1.55;;;;;;;15.74;100.00;101157.34;5005948;28;20128;-66
2021/08/11 05:15:16;;;;;;;1.88;1.23;;;;;;;15.83;100.00;101165.16;5009722;28;20018;-67
2021/08/11 05:17:41;;;;;;;2.83;1.83;;;;;;;15.85;100.00;101168.28;5009154;28;20076;-67
2021/08/11 05:20:07;;;;;;;3.92;1.73;;;;;;;15.98;100.00;101169.53;5009711;28;20074;-67
2021/08/11 05:22:33;;;;;;;2.65;1.83;;;;;;;15.89;100.00;101167.13;5002704;28;20037;-67
2021/08/11 05:24:58;;;;;;;2.67;1.65;;;;;;;15.85;100.00;101165.56;5010310;28;20022;-66
2021/08/11 05:27:25;;;;;;;2.33;1.45;;;;;;;15.61;100.00;101168.88;5010731;28;20045;-67
2021/08/11 05:29:50;;;;;;;3.03;1.67;;;;;;;15.53;100.00;101175.38;4999280;28;20022;-66
2021/08/11 05:32:16;;;;;;;2.10;1.60;;;;;;;15.65;100.00;101175.09;5004565;28;20060;-67
2021/08/11 05:34:43;;;;;;;2.53;1.70;;;;;;;15.53;100.00;101181.59;5003608;28;20053;-66
2021/08/11 05:37:08;;;;;;;2.75;1.73;;;;;;;15.55;100.00;101179.31;5009493;28;20105;-69
2021/08/11 05:39:34;;;;;;;3.00;1.67;;;;;;;15.68;100.00;101179.81;5005190;28;20149;-66
2021/08/11 05:41:59;;;;;;;3.20;1.58;;;;;;;15.71;100.00;101182.53;4993231;28;20045;-67
2021/08/11 05:44:25;;;;;;;3.95;1.90;;;;;;;15.71;100.00;101184.47;5010058;28;20098;-67
2021/08/11 05:46:50;;;;;;;3.03;1.52;;;;;;;15.88;100.00;101186.53;5008541;28;20038;-66
2021/08/11 05:49:16;;;;;;;2.13;1.55;;;;;;;15.95;100.00;101186.59;5008148;28;20124;-67
2021/08/11 05:51:41;;;;;;;3.03;1.98;;;;;;;15.74;100.00;101187.22;5009640;28;20045;-66
2021/08/11 05:54:07;;;;;;;3.08;1.70;;;;;;;15.61;100.00;101188.66;5008716;28;20068;-67
2021/08/11 05:56:33;;;;;;;3.33;1.98;;;;;;;15.72;100.00;101186.81;4994480;28;20062;-67
2021/08/11 05:58:58;;;;;;;2.72;1.73;;;;;;;15.77;100.00;101196.56;5012981;28;20105;-67
2021/08/11 06:01:24;;;;;;;2.15;1.30;;;;;;;15.89;100.00;101196.25;5008296;28;20084;-67
2021/08/11 06:03:54;;;;;;;3.55;1.67;;;;;;;15.80;100.00;101196.56;5009587;28;20037;-67
2021/08/11 06:06:20;;;;;;;2.63;1.50;;;;;;;15.86;100.00;101195.06;5002242;28;20041;-67
2021/08/11 06:08:45;;;;;;;3.33;2.03;;;;;;;15.98;100.00;101200.22;5008835;28;20383;-67
2021/08/11 06:11:11;;;;;;;3.50;2.13;;;;;;;15.93;100.00;101200.53;5011074;28;20038;-67
2021/08/11 06:13:36;;;;;;;2.42;1.55;;;;;;;16.15;100.00;101201.47;5005297;28;20413;-67
2021/08/11 06:16:02;;;;;;;2.83;1.58;;;;;;;16.25;100.00;101201.56;4999903;28;20030;-66
2021/08/11 06:18:27;;;;;;;3.83;1.80;;;;;;;16.47;100.00;101196.22;5011942;28;20044;-67
2021/08/11 06:20:53;;;;;;;3.50;2.22;;;;;;;16.57;100.00;101198.25;5014550;28;20490;-67
2021/08/11 06:23:19;;;;;;;4.53;1.85;;;;;;;16.35;100.00;101199.28;5004325;28;20034;-67
2021/08/11 06:25:45;;;;;;;3.47;1.88;;;;;;;16.42;100.00;101193.88;5010313;28;20033;-67
2021/08/11 06:28:10;;;;;;;4.68;2.00;;;;;;;16.62;100.00;101195.16;5000962;28;20033;-67
2021/08/11 06:30:36;;;;;;;4.32;2.28;;;;;;;16.69;100.00;101206.06;5001580;28;20026;-66
2021/08/11 06:33:03;;;;;;;4.00;1.77;;;;;;;16.60;100.00;101200.22;5006914;28;20025;-67
2021/08/11 06:35:28;;;;;;;3.67;2.03;;;;;;;16.54;100.00;101202.50;5006023;28;20045;-67
2021/08/11 06:37:54;;;;;;;2.72;1.88;;;;;;;16.55;100.00;101197.88;5007636;28;20141;-67
2021/08/11 06:40:21;;;;;;;3.80;1.70;;;;;;;16.80;100.00;101207.66;5007583;28;20033;-67
2021/08/11 06:42:48;;;;;;;3.08;1.80;;;;;;;17.07;100.00;101208.16;5010385;28;20064;-66
2021/08/11 06:45:17;;;;;;;4.45;2.28;;;;;;;17.05;100.00;101213.22;5005419;28;20185;-68
2021/08/11 06:47:43;;;;;;;4.18;1.67;;;;;;;17.02;100.00;101212.03;4992973;28;20441;-66
2021/08/11 06:50:13;;;;;;;4.88;2.30;;;;;;;17.19;100.00;101215.97;5006553;28;20026;-67
2021/08/11 06:52:39;;;;;;;2.60;1.83;;;;;;;17.38;100.00;101215.59;5014970;28;20060;-67
2021/08/11 06:55:11;;;;;;;5.00;2.55;;;;;;;17.66;100.00;101223.84;5012993;28;20490;-67
2021/08/11 06:57:37;;;;;;;2.50;1.38;;;;;;;17.98;100.00;101223.88;5011133;28;20048;-67
2021/08/11 07:00:05;;;;;;;4.90;2.13;;;;;;;18.20;100.00;101227.31;5007962;28;20042;-67
2021/08/11 07:02:30;;;;;;;3.20;1.83;;;;;;;18.46;100.00;101235.09;5015567;28;20449;-67
2021/08/11 07:04:56;;;;;;;4.47;2.67;;;;;;;18.65;100.00;101227.25;5012358;28;20109;-67
2021/08/11 07:07:21;;;;;;;5.28;2.58;;;;;;;18.83;100.00;101229.91;5010592;28;20061;-67
2021/08/11 07:09:46;;;;;;;4.10;2.35;;;;;;;18.93;100.00;101231.81;5003684;28;20333;-67
2021/08/11 07:12:12;;;;;;;4.28;2.35;;;;;;;19.07;100.00;101239.16;5009562;28;20056;-67
2021/08/11 07:14:37;;;;;;;4.18;2.35;;;;;;;19.19;100.00;101242.22;5007516;28;20034;-67
2021/08/11 07:17:03;;;;;;;3.78;2.42;;;;;;;19.36;100.00;101232.38;5011132;28;20030;-67
2021/08/11 07:19:28;;;;;;;4.00;2.40;;;;;;;19.49;100.00;101239.72;5012511;28;20402;-68
2021/08/11 07:21:54;;;;;;;4.43;2.47;;;;;;;19.50;100.00;101238.56;5008883;28;20037;-67
2021/08/11 07:24:20;;;;;;;4.85;3.00;;;;;;;19.52;100.00;101238.94;5010997;28;20037;-67
2021/08/11 07:26:45;;;;;;;4.45;2.50;;;;;;;19.66;100.00;101243.53;5011288;28;20018;-67
2021/08/11 07:29:11;;;;;;;4.85;2.58;;;;;;;19.59;100.00;101241.59;5009378;28;20041;-67
2021/08/11 07:31:37;;;;;;;3.95;2.65;;;;;;;19.62;100.00;101234.56;5012727;28;20045;-67
2021/08/11 07:34:03;;;;;;;4.78;2.30;;;;;;;19.79;100.00;101239.91;5015618;28;20510;-67
2021/08/11 07:36:28;;;;;;;2.85;2.00;;;;;;;19.90;100.00;101248.00;5004125;28;20048;-67
2021/08/11 07:38:54;;;;;;;6.50;2.50;;;;;;;20.02;100.00;101255.72;5008115;28;20046;-67
2021/08/11 07:41:19;;;;;;;3.72;2.03;;;;;;;20.18;100.00;101252.47;5010204;28;20113;-67
2021/08/11 07:43:45;;;;;;;4.28;2.15;;;;;;;20.30;100.00;101254.72;5011884;28;20034;-67
2021/08/11 07:46:10;;;;;;;2.15;1.58;;;;;;;20.46;100.00;101260.44;5006919;28;20038;-67
2021/08/11 07:48:36;;;;;;;3.90;2.38;;;;;;;20.62;99.62;101261.41;5009596;28;20092;-67
2021/08/11 07:51:01;;;;;;;3.35;2.08;;;;;;;20.71;99.01;101260.16;5002866;28;20131;-67
2021/08/11 07:53:27;;;;;;;2.95;1.80;;;;;;;20.76;97.94;101276.13;5014365;28;20449;-66
2021/08/11 07:55:52;;;;;;;3.78;2.15;;;;;;;20.89;97.35;101261.50;5011752;28;20479;-67
2021/08/11 07:58:20;;;;;;;4.18;1.73;;;;;;;20.78;97.70;101265.53;5011524;28;20046;-67
2021/08/11 08:00:46;;;;;;;2.72;1.80;;;;;;;21.07;97.67;101259.34;5005652;28;20069;-67
2021/08/11 08:03:11;;;;;;;4.88;2.65;;;;;;;21.03;96.87;101260.56;5007331;28;20025;-67
2021/08/11 08:05:37;;;;;;;2.80;1.75;;;;;;;21.03;96.17;101258.63;5014290;28;20109;-67
2021/08/11 08:08:03;;;;;;;3.03;1.77;;;;;;;21.20;96.97;101262.28;5010972;28;20053;-67
2021/08/11 08:10:28;;;;;;;4.35;2.17;;;;;;;21.39;96.98;101276.13;5005380;28;20125;-67
2021/08/11 08:12:53;;;;;;;2.45;1.80;;;;;;;21.41;95.11;101256.53;5009295;28;20564;-67
2021/08/11 08:15:21;;;;;;;2.30;1.60;;;;;;;21.60;95.11;101263.31;5005974;28;20117;-67
2021/08/11 08:17:46;;;;;;;2.60;1.63;;;;;;;21.69;96.04;101264.34;5008227;28;20113;-67
2021/08/11 08:20:12;;;;;;;3.65;1.30;;;;;;;21.94;96.67;101267.50;5002113;28;20054;-68
2021/08/11 08:22:38;;;;;;;2.03;1.33;;;;;;;22.21;94.27;101262.72;5009008;28;20030;-67
2021/08/11 08:25:04;;;;;;;3.97;1.30;;;;;;;22.50;91.44;101271.22;4999944;28;20518;-68
2021/08/11 08:27:30;;;;;;;2.20;1.20;;;;;;;22.26;89.97;101275.94;5005101;28;20033;-67
2021/08/11 08:29:57;;;;;;;2.17;1.23;;;;;;;21.95;88.58;101265.53;5011289;28;20398;-67
2021/08/11 08:32:26;;;;;;;1.38;1.00;;;;;;;22.06;88.03;101274.34;5007771;28;20048;-67
2021/08/11 08:34:52;;;;;;;1.65;1.05;;;;;;;22.15;87.96;101274.59;5001737;28;20069;-67
2021/08/11 08:37:32;;;;;;;1.58;1.10;;;;;;;22.16;87.30;101273.41;5000402;28;20058;-67
2021/08/11 08:39:58;;;;;;;1.13;1.00;;;;;;;22.08;86.40;101275.50;4995266;28;20050;-67
2021/08/11 08:42:23;;;;;;;1.40;1.15;;;;;;;21.97;87.49;101279.63;4990398;28;20037;-67
2021/08/11 08:44:49;;;;;;;1.23;0.90;;;;;;;21.87;86.09;101294.25;4994609;28;20491;-67
2021/08/11 08:47:20;;;;;;;1.40;1.00;;;;;;;21.77;86.52;101284.19;4994141;28;20038;-67
2021/08/11 08:49:46;;;;;;;2.10;1.50;;;;;;;21.71;86.06;101291.34;5000873;28;20073;-67
2021/08/11 08:52:16;;;;;;;1.67;1.05;;;;;;;21.60;87.91;101286.03;4991938;28;20061;-67
2021/08/11 08:54:43;;;;;;;2.35;1.30;;;;;;;21.44;87.92;101286.66;5004804;28;20786;-67
2021/08/11 08:57:09;;;;;;;1.23;1.00;;;;;;;21.29;89.54;101285.25;4997732;28;20123;-67
2021/08/11 08:59:34;;;;;;;1.67;1.13;;;;;;;21.09;90.21;101292.59;4994090;28;20058;-67
2021/08/11 09:01:59;;;;;;;1.85;1.00;;;;;;;20.96;91.89;101279.81;4992469;28;20049;-67
2021/08/11 09:04:25;;;;;;;1.98;1.17;;;;;;;21.08;93.39;101291.03;4996007;28;20025;-67
2021/08/11 09:06:50;;;;;;;2.45;1.75;;;;;;;21.29;92.38;101285.25;5001917;28;20087;-67
2021/08/11 09:09:16;;;;;;;1.35;1.10;;;;;;;21.50;89.43;101276.75;4996618;28;20026;-67
2021/08/11 09:11:43;;;;;;;1.67;1.20;;;;;;;21.84;89.04;101278.63;4994333;28;20053;-67
2021/08/11 09:14:25;;;;;;;1.50;0.73;;;;;;;22.02;87.65;101282.66;5001129;28;20048;-67
2021/08/11 09:16:56;;;;;;;1.15;0.88;;;;;;;22.35;85.07;101281.69;5002079;28;20120;-67
2021/08/11 09:19:23;;;;;;;0.82;0.82;;;;;;;22.67;84.95;101283.84;5009165;28;20113;-67
2021/08/11 09:22:04;;;;;;;1.27;0.93;;;;;;;23.15;81.75;101286.81;5000441;28;20032;-67
2021/08/11 09:24:37;;;;;;;1.13;1.02;;;;;;;23.45;78.71;101287.78;5001953;28;20704;-67
2021/08/11 09:27:25;;;;;;;1.08;0.80;;;;;;;23.58;78.09;101292.19;4998821;28;20050;-67
2021/08/11 09:30:06;;;;;;;1.30;0.88;;;;;;;23.84;77.22;101287.66;4991167;28;20042;-67
2021/08/11 09:32:58;;;;;;;1.10;0.80;;;;;;;23.93;77.25;101296.84;5026202;22;20498;-67
2021/08/11 09:35:35;;;;;;;2.05;0.63;;;;;;;24.06;76.77;101291.47;5053707;28;20052;-69
2021/08/11 09:38:06;;;;;;;1.10;1.00;;;;;;;24.13;75.34;101292.06;5065366;28;20488;-68
2021/08/11 09:40:36;;;;;;;1.50;1.00;;;;;;;24.06;74.95;101294.22;5053409;28;20041;-68
2021/08/11 09:43:06;;;;;;;0.88;0.80;;;;;;;24.06;73.65;101297.72;5054330;28;20049;-68
2021/08/11 09:45:51;;;;;;;0.50;0.50;;;;;;;24.34;72.29;101293.50;5037420;28;20551;-68
2021/08/11 09:48:21;;;;;;;1.40;0.70;;;;;;;24.41;70.93;101289.78;5045497;28;20656;-68
2021/08/11 09:50:59;;;;;;;1.00;0.80;;;;;;;24.46;73.01;101284.53;5039728;28;20185;-69
2021/08/11 09:53:28;;;;;;;0.70;0.68;;;;;;;24.18;71.86;101285.25;5046987;28;20041;-69
2021/08/11 09:55:57;;;;;;;1.02;0.70;;;;;;;24.29;73.04;101296.78;5047329;28;20501;-69
2021/08/11 09:58:23;;;;;;;1.55;0.85;;;;;;;24.45;72.81;101295.97;5044882;28;20063;-69
2021/08/11 10:00:48;;;;;;;1.70;0.90;;;;;;;24.66;70.38;101295.41;5042555;28;20072;-69
2021/08/11 10:03:14;;;;;;;0.70;0.70;;;;;;;24.87;69.21;101292.09;5044211;28;20040;-68
2021/08/11 10:05:39;;;;;;;0.60;0.50;;;;;;;24.86;69.38;101296.03;5048976;28;20078;-69
2021/08/11 10:08:05;;;;;;;1.08;0.98;;;;;;;24.98;69.94;101289.78;5056658;28;20040;-69
2021/08/11 10:10:49;;;;;;;1.85;1.13;;;;;;;24.92;67.09;101295.06;5051737;28;20044;-68
2021/08/11 10:13:21;;;;;;;1.00;0.80;;;;;;;25.00;69.12;101295.63;5040768;28;20041;-69
2021/08/11 10:15:47;;;;;;;1.50;0.80;;;;;;;25.18;65.56;101293.16;5065764;28;20113;-66
2021/08/11 10:18:17;;;;;;;1.70;0.73;;;;;;;25.37;65.80;101314.25;5045319;28;20033;-66
2021/08/11 10:20:45;;;;;;;1.40;0.73;;;;;;;25.71;66.20;101302.56;5041990;28;20079;-67
2021/08/11 10:23:15;;;;;;;0.77;0.75;;;;;;;25.75;66.41;101300.47;5045416;28;20037;-67
2021/08/11 10:25:41;;;;;;;0.95;0.65;;;;;;;25.79;65.29;101301.91;5051742;28;20040;-67
2021/08/11 10:28:07;;;;;;;1.42;0.60;;;;;;;25.63;64.04;101292.97;5048903;28;20041;-68
2021/08/11 10:30:33;;;;;;;0.80;0.80;;;;;;;25.71;65.36;101297.84;5045065;28;20108;-67
2021/08/11 10:33:01;;;;;;;0.70;0.70;;;;;;;25.85;64.71;101294.63;5043586;28;20488;-67
2021/08/11 10:35:29;;;;;;;0.93;0.90;;;;;;;25.86;61.83;101300.94;5046851;28;20040;-67
2021/08/11 10:37:58;;;;;;;0.90;0.80;;;;;;;25.92;63.72;101290.84;5037613;28;20037;-67
2021/08/11 10:40:23;;;;;;;1.33;1.05;;;;;;;26.03;63.08;101302.34;5050860;28;20107;-67
2021/08/11 10:42:57;;;;;;;0.77;0.68;;;;;;;26.14;59.29;101302.00;5043920;28;20109;-67
2021/08/11 10:45:25;;;;;;;1.15;1.00;;;;;;;25.97;60.33;101300.56;5051257;28;20136;-67
2021/08/11 10:47:51;;;;;;;1.35;0.65;;;;;;;25.47;61.80;101293.09;5043532;28;20033;-68
2021/08/11 10:50:17;;;;;;;1.13;0.75;;;;;;;25.13;62.88;101301.16;5038151;28;20489;-67
2021/08/11 10:52:43;;;;;;;0.77;0.65;;;;;;;24.83;64.04;101300.47;5041482;28;20032;-67
2021/08/11 10:55:09;;;;;;;1.27;0.68;;;;;;;25.03;64.00;101295.53;5043723;28;20505;-67
2021/08/11 10:57:35;;;;;;;1.20;1.00;;;;;;;25.41;64.00;101292.88;5044922;28;20068;-67
2021/08/11 11:00:08;;;;;;;1.25;0.88;;;;;;;25.68;64.36;101293.22;5039312;28;20033;-67
2021/08/11 11:02:37;;;;;;;1.10;0.80;;;;;;;25.71;63.40;101297.84;5044148;28;20037;-68
2021/08/11 11:05:03;;;;;;;1.23;0.90;;;;;;;25.76;63.53;101302.78;5037288;28;20033;-67
2021/08/11 11:07:28;;;;;;;0.65;0.60;;;;;;;25.96;61.66;101299.78;5039865;28;20432;-68
2021/08/11 11:10:23;;;;;;;0.50;0.50;;;;;;;26.01;59.41;101301.22;5045960;28;20094;-68
2021/08/11 11:12:48;;;;;;;0.90;0.68;;;;;;;26.31;59.28;101293.09;5044800;28;20149;-67
2021/08/11 11:15:14;;;;;;;0.73;0.57;;;;;;;26.26;58.08;101287.38;5049247;28;20108;-67
2021/08/11 11:18:22;;;;;;;1.25;0.70;;;;;;;25.95;58.13;101295.50;5051087;28;20039;-67
2021/08/11 11:20:56;;;;;;;1.00;0.75;;;;;;;26.35;59.70;101292.97;4969038;28;20030;-67
2021/08/11 11:23:37;;;;;;;0.60;0.60;;;;;;;26.47;58.33;101295.72;5036283;28;20477;-67